createdAt,value
2022-11-05T00:00:59.982Z,51.16
2022-11-05T00:06:34.734Z,51.25
2022-11-05T00:11:56.254Z,51.40
2022-11-05T00:16:58.861Z,51.26
2022-11-05T00:22:19.093Z,51.16
2022-11-05T00:27:23.162Z,51.10
2022-11-05T00:32:25.813Z,51.19
2022-11-05T00:37:28.617Z,51.05
2022-11-05T00:42:50.313Z,51.16
2022-11-05T00:48:10.642Z,51.17
2022-11-05T00:53:13.619Z,51.21
2022-11-05T00:58:18.578Z,51.41
2022-11-05T01:03:22.407Z,51.26
2022-11-05T01:08:26.164Z,51.25
2022-11-05T01:13:30.655Z,50.98
2022-11-05T01:18:33.248Z,51.12
2022-11-05T01:23:36.004Z,51.20
2022-11-05T01:28:39.973Z,51.12
2022-11-05T01:33:42.621Z,51.12
2022-11-05T01:38:45.283Z,51.18
2022-11-05T01:43:50.147Z,51.34
2022-11-05T01:48:56.171Z,51.36
2022-11-05T01:54:02.527Z,51.38
2022-11-05T01:59:07.783Z,51.42
2022-11-05T02:04:17.743Z,51.46
2022-11-05T02:09:22.496Z,51.40
2022-11-05T02:14:26.505Z,51.63
2022-11-05T02:20:06.259Z,51.51
2022-11-05T02:25:17.644Z,51.53
2022-11-05T02:30:30.743Z,51.41
2022-11-05T02:35:49.984Z,51.38
2022-11-05T02:40:56.377Z,51.38
2022-11-05T02:46:11.048Z,51.58
2022-11-05T02:51:15.862Z,51.50
2022-11-05T02:56:23.271Z,51.50
2022-11-05T03:01:27.391Z,51.60
2022-11-05T03:07:00.110Z,51.68
2022-11-05T03:12:06.408Z,51.64
2022-11-05T03:17:13.652Z,51.62
2022-11-05T03:22:17.477Z,51.71
2022-11-05T03:27:22.364Z,51.81
2022-11-05T03:32:26.279Z,51.83
2022-11-05T03:37:29.862Z,52.07
2022-11-05T03:42:34.410Z,51.90
2022-11-05T03:47:39.291Z,51.88
2022-11-05T03:52:45.250Z,51.88
2022-11-05T03:57:48.097Z,51.73
2022-11-05T04:02:52.334Z,52.14
2022-11-05T04:08:14.443Z,51.86
2022-11-05T04:13:26.234Z,52.09
2022-11-05T04:18:30.235Z,51.88
2022-11-05T04:23:52.665Z,51.95
2022-11-05T04:29:12.795Z,51.95
2022-11-05T04:34:18.729Z,51.93
2022-11-05T04:39:21.419Z,52.03
2022-11-05T04:44:24.015Z,52.19
2022-11-05T04:49:27.968Z,52.18
2022-11-05T04:54:30.823Z,52.34
2022-11-05T04:59:33.443Z,52.27
2022-11-05T05:04:37.429Z,52.07
2022-11-05T05:09:40.110Z,52.30
2022-11-05T05:14:45.023Z,52.15
2022-11-05T05:20:06.629Z,52.26
2022-11-05T05:25:09.582Z,52.28
2022-11-05T05:30:12.863Z,52.46
2022-11-05T05:35:17.180Z,52.25
2022-11-05T05:40:19.819Z,52.41
2022-11-05T05:45:22.611Z,52.57
2022-11-05T05:50:26.622Z,52.38
2022-11-05T05:55:29.232Z,52.36
2022-11-05T06:00:31.871Z,52.37
2022-11-05T06:05:35.876Z,52.54
2022-11-05T06:10:38.767Z,52.69
2022-11-05T06:15:41.468Z,52.63
2022-11-05T06:20:45.526Z,52.56
2022-11-05T06:25:48.146Z,52.68
2022-11-05T06:30:51.492Z,52.71
2022-11-05T06:35:55.699Z,52.51
2022-11-05T06:40:59.171Z,52.80
2022-11-05T06:46:02.336Z,53.00
2022-11-05T06:51:07.947Z,52.86
2022-11-05T06:56:10.550Z,52.85
2022-11-05T07:01:13.195Z,52.95
2022-11-05T07:06:18.413Z,53.00
2022-11-05T07:11:21.161Z,52.81
2022-11-05T07:16:23.825Z,53.15
2022-11-05T07:21:27.845Z,53.14
2022-11-05T07:26:34.383Z,52.93
2022-11-05T07:31:37.403Z,53.12
2022-11-05T07:36:41.565Z,53.42
2022-11-05T07:41:44.211Z,53.23
2022-11-05T07:46:46.847Z,53.32
2022-11-05T07:51:51.003Z,53.39
2022-11-05T07:56:53.879Z,53.22
2022-11-05T08:01:56.556Z,53.38
2022-11-05T08:07:00.660Z,53.16
2022-11-05T08:12:03.555Z,52.33
2022-11-05T08:17:06.242Z,51.90
2022-11-05T08:22:10.251Z,51.43
2022-11-05T08:27:12.866Z,51.60
2022-11-05T08:32:16.575Z,51.19
2022-11-05T08:37:20.555Z,50.38
2022-11-05T08:42:23.145Z,49.60
2022-11-05T08:47:26.283Z,43.05
2022-11-05T08:52:30.322Z,44.15
2022-11-05T08:57:33.062Z,45.99
2022-11-05T09:02:35.842Z,46.87
2022-11-05T09:07:39.822Z,47.05
2022-11-05T09:12:42.465Z,47.16
2022-11-05T09:17:45.164Z,47.24
2022-11-05T09:22:49.357Z,47.65
2022-11-05T09:27:51.961Z,48.03
2022-11-05T09:32:54.645Z,47.76
2022-11-05T09:38:01.110Z,47.66
2022-11-05T09:43:04.121Z,47.92
2022-11-05T09:48:09.344Z,46.31
2022-11-05T09:53:14.106Z,47.19
2022-11-05T09:58:18.615Z,47.41
2022-11-05T10:03:22.663Z,47.43
2022-11-05T10:08:29.362Z,46.76
2022-11-05T10:13:36.022Z,46.15
2022-11-05T10:18:40.576Z,46.08
2022-11-05T10:23:44.709Z,45.90
2022-11-05T10:28:47.377Z,45.97
2022-11-05T10:33:51.228Z,45.93
2022-11-05T10:38:57.387Z,45.58
2022-11-05T10:44:04.394Z,45.78
2022-11-05T10:49:17.174Z,45.56
2022-11-05T10:54:22.892Z,45.49
2022-11-05T10:59:26.590Z,45.45
2022-11-05T11:04:33.619Z,45.70
2022-11-05T11:09:41.564Z,45.67
2022-11-05T11:14:44.214Z,45.87
2022-11-05T11:19:46.935Z,45.94
2022-11-05T11:24:53.779Z,46.16
2022-11-05T11:29:58.420Z,46.00
2022-11-05T11:35:01.502Z,46.26
2022-11-05T11:40:06.741Z,46.47
2022-11-05T11:45:16.417Z,46.41
2022-11-05T11:50:34.170Z,46.34
2022-11-05T11:55:38.385Z,46.28
2022-11-05T12:00:43.791Z,46.02
2022-11-05T12:05:48.736Z,46.06
2022-11-05T12:10:57.613Z,45.68
2022-11-05T12:16:03.949Z,45.31
2022-11-05T12:21:08.059Z,45.21
2022-11-05T12:26:16.393Z,44.79
2022-11-05T12:31:23.600Z,44.42
2022-11-05T12:36:40.098Z,44.34
2022-11-05T12:41:48.288Z,44.32
2022-11-05T12:46:57.218Z,44.19
2022-11-05T12:52:10.624Z,44.10
2022-11-05T12:57:14.902Z,44.38
2022-11-05T13:02:21.957Z,44.60
2022-11-05T13:07:27.428Z,44.67
2022-11-05T13:12:32.468Z,44.50
2022-11-05T13:17:37.937Z,44.68
2022-11-05T13:22:43.663Z,44.08
2022-11-05T13:27:52.888Z,44.20
2022-11-05T13:32:59.700Z,44.15
2022-11-05T13:38:38.021Z,44.24
2022-11-05T13:43:56.278Z,44.40
2022-11-05T13:49:09.632Z,44.22
2022-11-05T13:54:45.767Z,44.32
2022-11-05T14:00:05.201Z,44.91
2022-11-05T14:05:08.265Z,45.05
2022-11-05T14:10:15.810Z,45.48
2022-11-05T14:15:22.068Z,45.70
2022-11-05T14:20:27.575Z,45.88
2022-11-05T14:26:12.533Z,46.35
2022-11-05T14:31:47.213Z,45.99
2022-11-05T14:37:25.584Z,46.27
2022-11-05T14:42:28.905Z,46.47
2022-11-05T14:47:34.252Z,46.63
2022-11-05T14:52:36.987Z,46.70
2022-11-05T14:58:03.046Z,46.74
2022-11-05T15:03:42.627Z,46.84
2022-11-05T15:09:24.061Z,45.17
2022-11-05T15:14:28.884Z,44.29
2022-11-05T15:19:34.314Z,43.53
2022-11-05T15:24:37.460Z,43.58
2022-11-05T15:29:40.312Z,43.49
2022-11-05T15:34:56.561Z,43.54
2022-11-05T15:39:59.332Z,43.76
2022-11-05T15:45:02.091Z,43.70
2022-11-05T15:50:14.674Z,44.13
2022-11-05T15:55:23.679Z,44.34
2022-11-05T16:00:27.741Z,44.60
2022-11-05T16:05:34.045Z,44.77
2022-11-05T16:10:38.688Z,45.12
2022-11-05T16:15:53.951Z,45.49
2022-11-05T16:21:05.476Z,45.67
2022-11-05T16:26:55.874Z,45.83
2022-11-05T16:31:50.155Z,46.15
2022-11-05T16:36:56.512Z,46.12
2022-11-05T16:41:59.131Z,46.29
2022-11-05T16:47:01.904Z,46.16
2022-11-05T16:52:09.831Z,46.02
2022-11-05T16:57:16.117Z,46.37
2022-11-05T17:02:18.925Z,46.31
2022-11-05T17:07:23.058Z,46.69
2022-11-05T17:12:25.968Z,46.61
2022-11-05T17:17:28.952Z,46.78
2022-11-05T17:22:32.953Z,46.54
2022-11-05T17:27:35.615Z,46.57
2022-11-05T17:32:38.414Z,46.44
2022-11-05T17:37:42.634Z,46.57
2022-11-05T17:42:46.113Z,46.56
2022-11-05T17:47:48.741Z,46.71
2022-11-05T17:52:52.772Z,46.34
2022-11-05T17:57:55.600Z,46.62
2022-11-05T18:02:58.377Z,46.59
2022-11-05T18:08:02.369Z,46.68
2022-11-05T18:13:05.170Z,46.61
2022-11-05T18:18:10.467Z,46.81
2022-11-05T18:23:15.123Z,46.65
2022-11-05T18:28:18.184Z,46.67
2022-11-05T18:33:20.804Z,46.69
2022-11-05T18:38:25.025Z,46.65
2022-11-05T18:43:27.758Z,46.61
2022-11-05T18:48:31.387Z,46.78
2022-11-05T18:53:35.422Z,46.75
2022-11-05T18:58:38.498Z,46.88
2022-11-05T19:03:41.273Z,46.83
2022-11-05T19:08:45.422Z,46.52
2022-11-05T19:13:48.307Z,46.28
2022-11-05T19:18:51.279Z,46.21
2022-11-05T19:23:56.853Z,46.23
2022-11-05T19:29:00.415Z,46.26
2022-11-05T19:34:03.406Z,45.98
2022-11-05T19:39:09.170Z,45.94
2022-11-05T19:44:11.851Z,45.67
2022-11-05T19:49:14.625Z,45.79
2022-11-05T19:54:18.815Z,45.91
2022-11-05T19:59:21.671Z,45.90
2022-11-05T20:04:24.306Z,45.84
2022-11-05T20:09:28.453Z,45.71
2022-11-05T20:14:31.364Z,45.66
2022-11-05T20:19:35.321Z,45.71
2022-11-05T20:24:39.534Z,45.22
2022-11-05T20:29:42.268Z,45.39
2022-11-05T20:34:45.361Z,45.56
2022-11-05T20:39:49.386Z,45.30
2022-11-05T20:44:52.152Z,45.39
2022-11-05T20:49:55.303Z,45.33
2022-11-05T20:54:59.451Z,45.36
2022-11-05T21:00:02.212Z,45.42
2022-11-05T21:05:07.360Z,45.17
2022-11-05T21:10:11.933Z,45.29
2022-11-05T21:15:14.940Z,45.31
2022-11-05T21:20:17.745Z,45.24
2022-11-05T21:25:21.711Z,45.40
2022-11-05T21:30:24.380Z,45.31
2022-11-05T21:35:27.123Z,45.19
2022-11-05T21:40:31.245Z,45.05
2022-11-05T21:45:33.934Z,45.31
2022-11-05T21:50:54.173Z,45.13
2022-11-05T21:56:15.925Z,44.95
2022-11-05T22:01:18.646Z,45.38
2022-11-05T22:06:21.368Z,45.11
2022-11-05T22:11:25.435Z,45.49
2022-11-05T22:16:28.109Z,45.07
2022-11-05T22:21:30.761Z,45.34
2022-11-05T22:26:35.003Z,45.39
2022-11-05T22:31:37.657Z,45.47
2022-11-05T22:36:40.333Z,45.24
2022-11-05T22:41:44.421Z,45.72
2022-11-05T22:46:47.073Z,45.81
2022-11-05T22:51:49.692Z,45.96
2022-11-05T22:56:53.771Z,46.17
2022-11-05T23:01:56.550Z,46.27
2022-11-05T23:07:16.802Z,46.30
2022-11-05T23:12:23.979Z,46.32
2022-11-05T23:17:44.159Z,46.61
2022-11-05T23:23:04.796Z,46.63
2022-11-05T23:28:10.237Z,46.72
2022-11-05T23:33:13.191Z,46.75
2022-11-05T23:38:33.349Z,46.75
2022-11-05T23:43:54.823Z,46.94
2022-11-05T23:49:00.584Z,47.06
2022-11-05T23:54:03.177Z,47.14
2022-11-05T23:59:07.190Z,47.10
